createdAt,value
2022-08-30T00:01:24.535Z,66.51
2022-08-30T00:04:08.267Z,66.88
2022-08-30T00:06:52.600Z,66.91
2022-08-30T00:09:35.597Z,66.72
2022-08-30T00:12:20.965Z,67.01
2022-08-30T00:15:06.388Z,66.70
2022-08-30T00:17:49.846Z,66.55
2022-08-30T00:20:34.990Z,66.66
2022-08-30T00:23:20.018Z,66.87
2022-08-30T00:26:03.641Z,66.75
2022-08-30T00:28:46.703Z,66.74
2022-08-30T00:31:29.730Z,67.24
2022-08-30T00:34:12.760Z,66.77
2022-08-30T00:36:55.850Z,66.77
2022-08-30T00:39:40.173Z,67.37
2022-08-30T00:42:23.491Z,67.27
2022-08-30T00:45:14.648Z,67.64
2022-08-30T00:47:58.133Z,67.65
2022-08-30T00:50:44.223Z,67.79
2022-08-30T00:53:31.769Z,67.82
2022-08-30T00:56:17.965Z,68.16
2022-08-30T00:59:04.286Z,67.86
2022-08-30T01:01:47.549Z,68.23
2022-08-30T01:04:31.008Z,68.04
2022-08-30T01:07:14.829Z,68.19
2022-08-30T01:09:57.982Z,67.86
2022-08-30T01:12:43.414Z,67.74
2022-08-30T01:15:26.670Z,67.69
2022-08-30T01:18:11.541Z,67.68
2022-08-30T01:21:04.791Z,67.46
2022-08-30T01:23:51.506Z,67.66
2022-08-30T01:26:37.062Z,67.61
2022-08-30T01:29:24.073Z,67.64
2022-08-30T01:32:07.770Z,67.68
2022-08-30T01:34:51.771Z,67.57
2022-08-30T01:37:38.116Z,67.66
2022-08-30T01:40:23.218Z,67.76
2022-08-30T01:43:06.877Z,67.40
2022-08-30T01:45:49.973Z,67.56
2022-08-30T01:48:34.181Z,67.09
2022-08-30T01:51:19.075Z,67.19
2022-08-30T01:54:02.107Z,67.13
2022-08-30T01:56:46.760Z,67.27
2022-08-30T01:59:30.169Z,67.12
2022-08-30T02:02:13.176Z,67.57
2022-08-30T02:04:56.969Z,67.10
2022-08-30T02:07:41.583Z,67.17
2022-08-30T02:10:24.685Z,67.41
2022-08-30T02:13:09.365Z,67.60
2022-08-30T02:15:54.435Z,67.58
2022-08-30T02:18:39.286Z,67.39
2022-08-30T02:21:22.556Z,67.77
2022-08-30T02:24:05.837Z,67.24
2022-08-30T02:26:48.816Z,67.69
2022-08-30T02:29:33.274Z,67.62
2022-08-30T02:32:16.413Z,67.79
2022-08-30T02:34:59.574Z,67.60
2022-08-30T02:37:42.609Z,67.32
2022-08-30T02:40:25.809Z,67.93
2022-08-30T02:43:08.950Z,67.71
2022-08-30T02:45:53.709Z,67.89
2022-08-30T02:48:36.950Z,67.92
2022-08-30T02:51:20.592Z,67.54
2022-08-30T02:54:03.843Z,68.18
2022-08-30T02:56:47.665Z,67.75
2022-08-30T02:59:30.648Z,68.02
2022-08-30T03:02:15.374Z,67.94
2022-08-30T03:04:58.807Z,68.67
2022-08-30T03:07:42.137Z,68.43
2022-08-30T03:10:25.199Z,68.13
2022-08-30T03:13:08.960Z,68.28
2022-08-30T03:15:52.855Z,68.34
2022-08-30T03:18:37.418Z,68.59
2022-08-30T03:21:20.451Z,68.11
2022-08-30T03:24:03.865Z,68.51
2022-08-30T03:26:46.944Z,68.59
2022-08-30T03:29:30.131Z,68.69
2022-08-30T03:32:13.183Z,68.61
2022-08-30T03:34:57.547Z,68.33
2022-08-30T03:37:40.792Z,68.19
2022-08-30T03:40:23.912Z,68.46
2022-08-30T03:43:08.841Z,68.34
2022-08-30T03:45:52.203Z,68.16
2022-08-30T03:48:35.366Z,68.34
2022-08-30T03:51:19.775Z,68.35
2022-08-30T03:54:02.878Z,68.40
2022-08-30T03:56:45.952Z,68.22
2022-08-30T03:59:29.295Z,68.27
2022-08-30T04:02:12.786Z,68.08
2022-08-30T04:04:55.800Z,68.24
2022-08-30T04:07:40.317Z,68.18
2022-08-30T04:10:23.929Z,68.04
2022-08-30T04:13:07.141Z,68.07
2022-08-30T04:15:50.730Z,68.70
2022-08-30T04:18:34.779Z,68.77
2022-08-30T04:21:17.997Z,68.73
2022-08-30T04:24:02.332Z,68.50
2022-08-30T04:26:45.268Z,68.72
2022-08-30T04:29:28.375Z,68.31
2022-08-30T04:32:11.310Z,68.39
2022-08-30T04:34:58.633Z,68.37
2022-08-30T04:37:41.899Z,68.51
2022-08-30T04:40:26.422Z,68.38
2022-08-30T04:43:09.851Z,68.50
2022-08-30T04:45:52.917Z,68.40
2022-08-30T04:48:37.060Z,68.45
2022-08-30T04:51:20.058Z,69.03
2022-08-30T04:54:03.095Z,69.04
2022-08-30T04:56:47.407Z,68.90
2022-08-30T04:59:30.432Z,68.83
2022-08-30T05:02:14.878Z,69.20
2022-08-30T05:05:15.424Z,69.33
2022-08-30T05:07:59.300Z,69.27
2022-08-30T05:10:44.370Z,68.97
2022-08-30T05:13:35.736Z,69.23
2022-08-30T05:16:20.139Z,69.13
2022-08-30T05:19:03.239Z,68.91
2022-08-30T05:21:46.213Z,69.10
2022-08-30T05:24:29.211Z,69.00
2022-08-30T05:27:12.184Z,69.29
2022-08-30T05:29:56.739Z,69.22
2022-08-30T05:32:39.728Z,69.29
2022-08-30T05:35:25.752Z,69.26
2022-08-30T05:38:08.963Z,69.65
2022-08-30T05:40:54.945Z,69.64
2022-08-30T05:43:38.099Z,69.92
2022-08-30T05:46:22.744Z,69.68
2022-08-30T05:49:06.677Z,69.71
2022-08-30T05:51:49.751Z,69.55
2022-08-30T05:54:32.763Z,69.44
2022-08-30T05:57:15.720Z,69.40
2022-08-30T05:59:58.731Z,68.94
2022-08-30T06:02:43.847Z,68.98
2022-08-30T06:05:26.795Z,68.65
2022-08-30T06:08:10.051Z,68.51
2022-08-30T06:10:53.150Z,68.47
2022-08-30T06:13:36.180Z,68.47
2022-08-30T06:16:21.345Z,68.36
2022-08-30T06:19:08.361Z,68.59
2022-08-30T06:21:52.312Z,68.23
2022-08-30T06:24:56.387Z,68.08
2022-08-30T06:27:39.345Z,68.06
2022-08-30T06:30:22.451Z,67.57
2022-08-30T06:33:05.525Z,67.28
2022-08-30T06:35:58.398Z,67.70
2022-08-30T06:38:42.703Z,67.41
2022-08-30T06:41:28.030Z,67.51
2022-08-30T06:44:11.042Z,67.37
2022-08-30T06:46:54.063Z,67.19
2022-08-30T06:49:37.116Z,67.12
2022-08-30T06:52:21.562Z,67.55
2022-08-30T06:55:05.027Z,67.34
2022-08-30T06:57:48.450Z,67.44
2022-08-30T07:00:31.462Z,67.43
2022-08-30T07:03:14.578Z,67.29
2022-08-30T07:05:58.652Z,67.52
2022-08-30T07:08:43.297Z,67.67
2022-08-30T07:11:28.473Z,67.59
2022-08-30T07:14:11.687Z,67.45
2022-08-30T07:16:54.630Z,67.59
2022-08-30T07:19:36.684Z,67.30
2022-08-30T07:22:19.912Z,66.77
2022-08-30T07:25:04.660Z,66.50
2022-08-30T07:27:47.623Z,66.19
2022-08-30T07:30:31.905Z,66.36
2022-08-30T07:33:14.891Z,66.23
2022-08-30T07:35:58.860Z,65.97
2022-08-30T07:38:44.929Z,65.75
2022-08-30T07:41:32.501Z,66.05
2022-08-30T07:44:15.898Z,65.92
2022-08-30T07:46:59.143Z,66.10
2022-08-30T07:49:42.142Z,65.56
2022-08-30T07:52:25.197Z,65.79
2022-08-30T07:55:13.762Z,65.11
2022-08-30T07:57:58.558Z,65.12
2022-08-30T08:00:41.385Z,64.91
2022-08-30T08:03:25.446Z,64.92
2022-08-30T08:06:10.186Z,65.01
2022-08-30T08:08:53.786Z,64.66
2022-08-30T08:11:37.799Z,64.96
2022-08-30T08:14:23.748Z,65.33
2022-08-30T08:17:06.822Z,65.13
2022-08-30T08:19:49.899Z,65.13
2022-08-30T08:22:34.108Z,64.87
2022-08-30T08:25:19.995Z,65.20
2022-08-30T08:28:02.930Z,64.66
2022-08-30T08:30:48.534Z,65.05
2022-08-30T08:33:31.759Z,64.47
2022-08-30T08:36:15.157Z,64.17
2022-08-30T08:38:58.582Z,63.89
2022-08-30T08:41:57.104Z,63.97
2022-08-30T08:44:54.358Z,63.91
2022-08-30T08:47:42.408Z,63.89
2022-08-30T08:50:25.978Z,63.96
2022-08-30T08:53:46.025Z,63.94
2022-08-30T08:56:29.820Z,63.70
2022-08-30T08:59:14.482Z,63.97
2022-08-30T09:02:01.805Z,63.38
2022-08-30T09:04:46.370Z,63.50
2022-08-30T09:07:37.577Z,63.30
2022-08-30T09:10:40.399Z,62.87
2022-08-30T09:13:26.494Z,63.37
2022-08-30T09:16:13.969Z,63.05
2022-08-30T09:19:05.555Z,62.68
2022-08-30T09:21:58.084Z,62.13
2022-08-30T09:24:43.534Z,62.07
2022-08-30T09:27:30.839Z,61.66
2022-08-30T09:30:19.330Z,61.35
2022-08-30T09:33:04.325Z,60.94
2022-08-30T09:35:52.108Z,60.20
2022-08-30T09:38:38.781Z,59.42
2022-08-30T09:41:35.345Z,58.75
2022-08-30T09:44:20.366Z,58.48
2022-08-30T09:47:03.398Z,57.90
2022-08-30T09:49:46.363Z,57.68
2022-08-30T09:52:43.418Z,56.58
2022-08-30T09:55:52.782Z,55.32
2022-08-30T09:58:59.484Z,53.24
2022-08-30T10:01:46.482Z,53.51
2022-08-30T10:04:40.162Z,52.32
2022-08-30T10:07:30.325Z,52.13
2022-08-30T10:10:22.175Z,51.26
2022-08-30T10:13:28.746Z,49.30
2022-08-30T10:16:20.962Z,49.00
2022-08-30T10:19:15.192Z,48.24
2022-08-30T10:22:03.235Z,47.66
2022-08-30T10:24:50.165Z,47.33
2022-08-30T10:27:38.944Z,45.52
2022-08-30T10:30:24.124Z,45.86
2022-08-30T10:33:11.857Z,45.30
2022-08-30T10:35:59.302Z,44.50
2022-08-30T10:38:47.320Z,43.51
2022-08-30T10:41:36.786Z,42.31
2022-08-30T10:44:23.832Z,42.30
2022-08-30T10:47:23.260Z,41.92
2022-08-30T10:50:13.969Z,41.68
2022-08-30T10:53:04.565Z,41.66
2022-08-30T10:55:52.529Z,41.31
2022-08-30T10:58:39.427Z,40.86
2022-08-30T11:01:33.466Z,40.33
2022-08-30T11:05:02.463Z,39.35
2022-08-30T11:08:00.562Z,39.89
2022-08-30T11:10:55.307Z,39.55
2022-08-30T11:13:41.688Z,39.60
2022-08-30T11:16:44.635Z,37.75
2022-08-30T11:19:43.632Z,37.58
2022-08-30T11:22:38.661Z,37.69
2022-08-30T11:25:53.348Z,36.17
2022-08-30T11:29:04.777Z,36.17
2022-08-30T11:31:49.528Z,37.57
2022-08-30T11:34:56.700Z,36.87
2022-08-30T11:37:43.223Z,37.22
2022-08-30T11:40:49.347Z,34.92
2022-08-30T11:43:55.659Z,35.54
2022-08-30T11:46:40.651Z,36.47
2022-08-30T11:49:56.418Z,34.65
2022-08-30T11:52:48.813Z,35.49
2022-08-30T11:55:42.268Z,35.45
2022-08-30T11:58:48.087Z,34.99
2022-08-30T12:01:51.906Z,35.26
2022-08-30T12:04:45.564Z,35.19
2022-08-30T12:08:00.695Z,34.54
2022-08-30T12:10:46.457Z,34.93
2022-08-30T12:13:54.089Z,34.49
2022-08-30T12:17:03.028Z,34.98
2022-08-30T12:19:49.554Z,35.21
2022-08-30T12:22:37.899Z,34.73
2022-08-30T12:25:31.491Z,34.52
2022-08-30T12:28:21.537Z,34.68
2022-08-30T12:31:10.815Z,34.86
2022-08-30T12:34:00.734Z,33.95
2022-08-30T12:36:54.276Z,34.82
2022-08-30T12:39:39.478Z,35.51
2022-08-30T12:42:26.838Z,35.27
2022-08-30T12:45:15.047Z,36.11
2022-08-30T12:48:01.478Z,36.17
2022-08-30T12:50:51.705Z,36.48
2022-08-30T12:53:39.267Z,37.29
2022-08-30T12:56:35.106Z,37.45
2022-08-30T12:59:58.111Z,37.56
2022-08-30T13:02:48.241Z,38.37
2022-08-30T13:05:48.154Z,39.03
2022-08-30T13:08:36.409Z,39.34
2022-08-30T13:11:29.529Z,40.20
2022-08-30T13:14:31.698Z,40.02
2022-08-30T13:17:25.897Z,41.04
2022-08-30T13:20:24.694Z,41.51
2022-08-30T13:23:09.837Z,41.60
2022-08-30T13:25:52.834Z,41.82
2022-08-30T13:28:51.276Z,42.82
2022-08-30T13:31:36.287Z,42.98
2022-08-30T13:34:22.640Z,43.40
2022-08-30T13:37:07.470Z,43.75
2022-08-30T13:40:12.537Z,44.25
2022-08-30T13:42:55.752Z,44.34
2022-08-30T13:45:42.236Z,44.95
2022-08-30T13:48:26.609Z,45.36
2022-08-30T13:51:11.131Z,45.53
2022-08-30T13:53:54.634Z,45.70
2022-08-30T13:56:37.862Z,45.93
2022-08-30T13:59:21.897Z,46.05
2022-08-30T14:02:10.601Z,46.76
2022-08-30T14:04:54.679Z,45.54
2022-08-30T14:07:39.236Z,45.42
2022-08-30T14:10:32.839Z,45.10
2022-08-30T14:13:16.012Z,44.44
2022-08-30T14:19:05.932Z,44.12
2022-08-30T14:21:51.136Z,44.58
2022-08-30T14:24:35.899Z,44.48
2022-08-30T14:27:19.248Z,43.03
2022-08-30T14:30:05.851Z,42.62
2022-08-30T14:32:48.887Z,43.58
2022-08-30T14:35:31.974Z,43.43
2022-08-30T14:38:15.026Z,42.16
2022-08-30T14:41:00.900Z,41.88
2022-08-30T14:43:44.095Z,41.67
2022-08-30T14:46:27.414Z,41.93
2022-08-30T14:49:11.205Z,41.83
2022-08-30T14:51:55.672Z,41.97
2022-08-30T14:54:38.648Z,42.95
2022-08-30T14:57:23.002Z,43.82
2022-08-30T15:00:08.560Z,44.46
2022-08-30T15:02:51.643Z,44.93
2022-08-30T15:05:34.643Z,45.57
2022-08-30T15:08:18.484Z,45.63
2022-08-30T15:11:01.999Z,46.10
2022-08-30T15:13:46.974Z,45.91
2022-08-30T15:16:33.025Z,46.11
2022-08-30T15:19:16.268Z,46.40
2022-08-30T15:22:01.824Z,46.23
2022-08-30T15:24:48.827Z,46.53
2022-08-30T15:27:32.144Z,46.88
2022-08-30T15:30:16.974Z,47.29
2022-08-30T15:33:03.325Z,47.45
2022-08-30T15:35:46.283Z,47.42
2022-08-30T15:38:29.772Z,47.96
2022-08-30T15:41:14.009Z,48.21
2022-08-30T15:43:58.143Z,48.16
2022-08-30T15:46:44.721Z,48.21
2022-08-30T15:49:28.524Z,48.46
2022-08-30T15:52:11.511Z,49.03
2022-08-30T15:54:54.728Z,49.03
2022-08-30T15:57:37.694Z,49.56
2022-08-30T16:00:20.682Z,49.55
2022-08-30T16:03:05.109Z,49.78
2022-08-30T16:05:48.139Z,49.83
2022-08-30T16:08:32.928Z,49.71
2022-08-30T16:11:18.800Z,49.50
2022-08-30T16:14:03.195Z,50.21
2022-08-30T16:16:46.950Z,50.62
2022-08-30T16:19:31.383Z,50.59
2022-08-30T16:22:14.493Z,51.49
2022-08-30T16:25:06.949Z,50.79
2022-08-30T16:27:49.932Z,50.52
2022-08-30T16:30:32.943Z,50.91
2022-08-30T16:33:16.349Z,50.82
2022-08-30T16:36:01.129Z,51.25
2022-08-30T16:38:44.034Z,51.73
2022-08-30T16:41:27.346Z,51.37
2022-08-30T16:44:10.590Z,51.63
2022-08-30T16:46:54.905Z,51.95
2022-08-30T16:49:37.949Z,52.06
2022-08-30T16:52:22.869Z,52.16
2022-08-30T16:55:06.684Z,52.26
2022-08-30T16:57:50.136Z,52.79
2022-08-30T17:00:34.334Z,52.88
2022-08-30T17:03:18.261Z,53.08
2022-08-30T17:06:05.498Z,52.93
2022-08-30T17:08:52.551Z,53.40
2022-08-30T17:11:40.249Z,53.14
2022-08-30T17:14:27.927Z,53.40
2022-08-30T17:17:12.368Z,53.44
2022-08-30T17:19:55.349Z,53.44
2022-08-30T17:22:38.407Z,53.42
2022-08-30T17:25:22.788Z,53.94
2022-08-30T17:28:06.966Z,53.76
2022-08-30T17:30:51.107Z,54.19
2022-08-30T17:33:38.164Z,54.54
2022-08-30T17:36:21.848Z,54.60
2022-08-30T17:39:10.906Z,55.02
2022-08-30T17:41:56.284Z,54.67
2022-08-30T17:44:42.410Z,54.94
2022-08-30T17:47:25.461Z,55.07
2022-08-30T17:50:12.132Z,55.11
2022-08-30T17:52:55.343Z,55.30
2022-08-30T17:55:38.834Z,55.38
2022-08-30T17:58:24.188Z,55.45
2022-08-30T18:01:11.657Z,55.87
2022-08-30T18:04:13.472Z,57.08
2022-08-30T18:07:02.527Z,56.35
2022-08-30T18:09:45.550Z,56.65
2022-08-30T18:12:28.930Z,56.75
2022-08-30T18:15:14.781Z,56.94
2022-08-30T18:17:58.948Z,57.16
2022-08-30T18:20:42.386Z,57.90
2022-08-30T18:23:26.944Z,57.41
2022-08-30T18:26:12.616Z,57.89
2022-08-30T18:28:56.156Z,57.74
2022-08-30T18:31:40.747Z,58.23
2022-08-30T18:34:25.999Z,58.49
2022-08-30T18:37:11.421Z,58.62
2022-08-30T18:39:55.440Z,58.92
2022-08-30T18:42:39.080Z,59.16
2022-08-30T18:45:24.226Z,59.21
2022-08-30T18:48:08.699Z,59.12
2022-08-30T18:50:52.190Z,59.46
2022-08-30T18:53:35.474Z,59.42
2022-08-30T18:56:18.683Z,59.67
2022-08-30T18:59:01.697Z,59.84
2022-08-30T19:01:46.573Z,59.66
2022-08-30T19:04:35.503Z,59.83
2022-08-30T19:07:20.353Z,60.17
2022-08-30T19:10:03.882Z,60.25
2022-08-30T19:12:47.083Z,60.64
2022-08-30T19:15:31.606Z,60.63
2022-08-30T19:18:17.362Z,61.07
2022-08-30T19:21:01.988Z,61.10
2022-08-30T19:23:44.986Z,61.39
2022-08-30T19:26:29.077Z,62.09
2022-08-30T19:29:14.250Z,61.08
2022-08-30T19:31:57.518Z,61.40
2022-08-30T19:34:42.222Z,61.65
2022-08-30T19:37:26.667Z,61.30
2022-08-30T19:40:14.221Z,61.80
2022-08-30T19:42:58.283Z,61.58
2022-08-30T19:45:41.458Z,62.00
2022-08-30T19:48:32.343Z,61.74
2022-08-30T19:51:16.472Z,62.17
2022-08-30T19:54:01.366Z,61.91
2022-08-30T19:56:44.352Z,61.84
2022-08-30T19:59:27.413Z,62.03
2022-08-30T20:02:13.694Z,61.99
2022-08-30T20:04:58.055Z,62.12
2022-08-30T20:07:41.416Z,62.23
2022-08-30T20:10:27.127Z,61.88
2022-08-30T20:13:10.134Z,62.54
2022-08-30T20:15:55.954Z,62.28
2022-08-30T20:18:40.372Z,62.24
2022-08-30T20:21:25.688Z,61.93
2022-08-30T20:24:09.479Z,62.05
2022-08-30T20:26:54.271Z,62.25
2022-08-30T20:29:37.956Z,62.47
2022-08-30T20:32:20.967Z,62.31
2022-08-30T20:35:04.280Z,62.38
2022-08-30T20:37:47.371Z,62.24
2022-08-30T20:40:30.481Z,62.14
2022-08-30T20:43:16.384Z,62.42
2022-08-30T20:45:59.958Z,62.26
2022-08-30T20:48:43.976Z,62.17
2022-08-30T20:51:27.768Z,62.48
2022-08-30T20:54:10.985Z,62.24
2022-08-30T20:56:54.017Z,62.05
2022-08-30T20:59:38.795Z,62.25
2022-08-30T21:02:22.709Z,61.83
2022-08-30T21:05:07.111Z,62.26
2022-08-30T21:07:50.150Z,62.19
2022-08-30T21:10:33.760Z,61.93
2022-08-30T21:13:17.270Z,62.14
2022-08-30T21:16:03.437Z,61.71
2022-08-30T21:18:46.838Z,62.33
2022-08-30T21:21:32.280Z,62.42
2022-08-30T21:24:15.214Z,62.35
2022-08-30T21:26:58.607Z,62.32
2022-08-30T21:29:41.875Z,62.16
2022-08-30T21:32:26.408Z,62.27
2022-08-30T21:35:27.663Z,62.48
2022-08-30T21:38:10.908Z,62.11
2022-08-30T21:40:54.192Z,62.09
2022-08-30T21:43:37.176Z,62.32
2022-08-30T21:46:20.334Z,62.00
2022-08-30T21:49:06.507Z,62.23
2022-08-30T21:51:51.326Z,62.17
2022-08-30T21:54:34.380Z,62.13
2022-08-30T21:57:17.871Z,62.52
2022-08-30T22:00:00.983Z,62.16
2022-08-30T22:02:44.009Z,62.18
2022-08-30T22:05:28.459Z,62.17
2022-08-30T22:08:11.446Z,62.24
2022-08-30T22:10:54.553Z,62.41
2022-08-30T22:13:38.302Z,62.35
2022-08-30T22:16:24.190Z,61.98
2022-08-30T22:19:07.285Z,61.82
2022-08-30T22:21:52.397Z,61.53
2022-08-30T22:24:44.136Z,62.18
2022-08-30T22:27:27.118Z,61.87
2022-08-30T22:30:11.147Z,61.80
2022-08-30T22:32:54.468Z,62.01
2022-08-30T22:35:37.849Z,61.67
2022-08-30T22:38:22.357Z,61.31
2022-08-30T22:41:09.839Z,61.77
2022-08-30T22:43:53.408Z,61.56
2022-08-30T22:46:37.350Z,61.46
2022-08-30T22:49:20.448Z,61.60
2022-08-30T22:52:03.791Z,61.47
2022-08-30T22:54:49.386Z,61.41
2022-08-30T22:57:32.380Z,61.60
2022-08-30T23:00:20.181Z,61.94
2022-08-30T23:03:03.442Z,61.92
2022-08-30T23:05:46.832Z,61.48
2022-08-30T23:08:30.035Z,61.80
2022-08-30T23:11:14.975Z,62.03
2022-08-30T23:13:57.955Z,62.52
2022-08-30T23:16:40.955Z,62.03
2022-08-30T23:19:24.299Z,62.23
2022-08-30T23:22:07.250Z,61.94
2022-08-30T23:25:12.779Z,62.16
2022-08-30T23:28:20.866Z,62.36
2022-08-30T23:31:29.720Z,62.66
2022-08-30T23:34:30.427Z,62.69
2022-08-30T23:37:30.906Z,62.72
2022-08-30T23:40:31.791Z,63.09
2022-08-30T23:43:33.986Z,63.08
2022-08-30T23:46:34.539Z,63.13
2022-08-30T23:49:35.203Z,63.25
2022-08-30T23:52:35.626Z,63.34
2022-08-30T23:55:36.272Z,64.04
2022-08-30T23:58:38.055Z,64.45
